createdAt,value
2022-09-01T00:00:03.170Z,0.50
2022-09-01T00:02:33.863Z,0.50
2022-09-01T00:05:00.882Z,0.50
2022-09-01T00:07:32.625Z,0.60
2022-09-01T00:10:00.463Z,0.50
2022-09-01T00:12:29.667Z,0.40
2022-09-01T00:14:58.059Z,0.60
2022-09-01T00:17:25.196Z,0.50
2022-09-01T00:19:51.956Z,0.50
2022-09-01T00:22:18.944Z,0.50
2022-09-01T00:24:45.706Z,0.40
2022-09-01T00:27:13.001Z,0.60
2022-09-01T00:29:43.263Z,0.50
2022-09-01T00:32:12.473Z,0.50
2022-09-01T00:34:40.332Z,0.40
2022-09-01T00:37:08.148Z,0.60
2022-09-01T00:39:35.056Z,0.60
2022-09-01T00:42:02.168Z,0.50
2022-09-01T00:44:29.740Z,0.50
2022-09-01T00:47:00.217Z,0.50
2022-09-01T00:49:35.742Z,0.60
2022-09-01T00:52:29.353Z,0.70
2022-09-01T00:55:02.953Z,0.60
2022-09-01T00:57:30.276Z,0.60
2022-09-01T01:00:04.589Z,0.50
2022-09-01T01:02:31.499Z,0.80
2022-09-01T01:04:59.597Z,0.80
2022-09-01T01:07:28.969Z,0.60
2022-09-01T01:09:56.844Z,0.60
2022-09-01T01:12:23.866Z,0.60
2022-09-01T01:14:51.461Z,0.70
2022-09-01T01:17:23.199Z,0.70
2022-09-01T01:20:13.017Z,0.60
2022-09-01T01:23:09.233Z,0.50
2022-09-01T01:25:42.004Z,0.60
2022-09-01T01:28:20.070Z,0.50
2022-09-01T01:31:01.872Z,0.60
2022-09-01T01:33:43.022Z,0.40
2022-09-01T01:39:27.029Z,0.90
2022-09-01T01:41:58.759Z,0.70
2022-09-01T01:44:31.160Z,0.50
2022-09-01T01:47:08.567Z,0.40
2022-09-01T01:49:37.186Z,0.50
2022-09-01T01:52:04.824Z,0.50
2022-09-01T01:54:35.333Z,0.50
2022-09-01T01:57:06.074Z,0.50
2022-09-01T01:59:33.806Z,0.50
2022-09-01T02:02:04.148Z,0.60
2022-09-01T02:04:34.524Z,0.60
2022-09-01T02:07:06.482Z,0.50
2022-09-01T02:09:33.291Z,0.50
2022-09-01T02:12:00.094Z,0.40
2022-09-01T02:14:26.858Z,0.70
2022-09-01T02:16:56.201Z,0.50
2022-09-01T02:19:23.507Z,0.50
2022-09-01T02:21:54.480Z,0.40
2022-09-01T02:24:22.583Z,0.70
2022-09-01T02:26:49.711Z,0.40
2022-09-01T02:29:22.614Z,0.40
2022-09-01T02:31:54.590Z,0.50
2022-09-01T02:34:24.884Z,0.90
2022-09-01T02:36:56.028Z,0.60
2022-09-01T02:39:33.531Z,0.60
2022-09-01T02:42:01.466Z,0.60
2022-09-01T02:44:32.252Z,0.70
2022-09-01T02:47:00.985Z,0.50
2022-09-01T02:49:31.514Z,0.80
2022-09-01T02:52:01.480Z,0.60
2022-09-01T02:54:33.017Z,0.80
2022-09-01T02:57:01.183Z,0.60
2022-09-01T02:59:30.415Z,0.60
2022-09-01T03:02:01.394Z,0.60
2022-09-01T03:04:29.952Z,0.70
2022-09-01T03:06:58.907Z,0.60
2022-09-01T03:09:26.100Z,0.60
2022-09-01T03:11:54.788Z,0.80
2022-09-01T03:14:24.363Z,0.60
2022-09-01T03:16:51.601Z,0.50
2022-09-01T03:19:19.699Z,0.50
2022-09-01T03:21:48.022Z,0.80
2022-09-01T03:24:18.635Z,0.80
2022-09-01T03:26:50.281Z,1.00
2022-09-01T03:29:19.302Z,1.20
2022-09-01T03:31:46.942Z,1.40
2022-09-01T03:34:16.543Z,1.50
2022-09-01T03:36:50.984Z,1.40
2022-09-01T03:39:23.996Z,1.50
2022-09-01T03:41:50.808Z,1.10
2022-09-01T03:44:17.736Z,1.10
2022-09-01T03:46:45.578Z,0.90
2022-09-01T03:49:15.605Z,0.70
2022-09-01T03:51:45.134Z,0.70
2022-09-01T03:54:13.253Z,0.80
2022-09-01T03:56:41.931Z,0.80
2022-09-01T03:59:19.750Z,1.30
2022-09-01T04:01:47.208Z,0.70
2022-09-01T04:04:15.032Z,0.80
2022-09-01T04:06:45.217Z,0.70
2022-09-01T04:09:14.530Z,0.60
2022-09-01T04:11:46.405Z,0.70
2022-09-01T04:14:16.360Z,0.80
2022-09-01T04:17:03.549Z,0.90
2022-09-01T04:19:39.410Z,1.00
2022-09-01T04:22:08.103Z,1.00
2022-09-01T04:24:45.102Z,1.00
2022-09-01T04:27:13.793Z,1.70
2022-09-01T04:29:41.892Z,1.20
2022-09-01T04:32:12.922Z,1.00
2022-09-01T04:34:42.324Z,1.30
2022-09-01T04:37:21.291Z,1.30
2022-09-01T04:39:57.492Z,1.20
2022-09-01T04:42:29.886Z,1.10
2022-09-01T04:45:03.161Z,1.30
2022-09-01T04:47:42.095Z,1.10
2022-09-01T04:50:17.527Z,1.30
2022-09-01T04:53:06.221Z,1.40
2022-09-01T04:55:45.150Z,1.40
2022-09-01T04:58:20.534Z,1.50
2022-09-01T05:00:52.204Z,1.70
2022-09-01T05:03:23.643Z,1.10
2022-09-01T05:06:20.374Z,0.80
2022-09-01T05:08:52.737Z,1.40
2022-09-01T05:11:37.452Z,1.10
2022-09-01T05:14:10.504Z,1.20
2022-09-01T05:16:41.252Z,1.30
2022-09-01T05:19:14.924Z,1.60
2022-09-01T05:21:47.365Z,1.50
2022-09-01T05:24:19.082Z,0.90
2022-09-01T05:26:50.888Z,1.30
2022-09-01T05:29:19.210Z,1.10
2022-09-01T05:31:49.484Z,1.20
2022-09-01T05:34:26.886Z,1.40
2022-09-01T05:36:59.429Z,1.40
2022-09-01T05:39:28.594Z,1.40
2022-09-01T05:41:56.053Z,1.10
2022-09-01T05:44:23.156Z,1.30
2022-09-01T05:46:53.296Z,1.40
2022-09-01T05:49:20.318Z,1.50
2022-09-01T05:51:52.602Z,1.10
2022-09-01T05:54:25.626Z,1.20
2022-09-01T05:56:54.375Z,1.00
2022-09-01T05:59:27.910Z,1.60
2022-09-01T06:02:00.655Z,1.10
2022-09-01T06:04:28.499Z,0.80
2022-09-01T06:07:05.943Z,0.70
2022-09-01T06:09:43.241Z,0.70
2022-09-01T06:12:18.262Z,0.90
2022-09-01T06:14:48.460Z,1.20
2022-09-01T06:17:24.939Z,1.20
2022-09-01T06:19:58.100Z,0.90
2022-09-01T06:22:30.934Z,1.20
2022-09-01T06:25:02.293Z,0.90
2022-09-01T06:27:33.999Z,0.80
2022-09-01T06:30:01.335Z,0.70
2022-09-01T06:32:30.429Z,1.10
2022-09-01T06:35:00.411Z,0.80
2022-09-01T06:37:28.881Z,0.90
2022-09-01T06:39:57.708Z,1.40
2022-09-01T06:42:25.300Z,0.80
2022-09-01T06:44:56.984Z,0.80
2022-09-01T06:47:24.280Z,0.90
2022-09-01T06:49:55.925Z,0.70
2022-09-01T06:52:28.488Z,0.90
2022-09-01T06:54:55.978Z,0.90
2022-09-01T07:00:19.058Z,0.70
2022-09-01T07:02:48.561Z,0.80
2022-09-01T07:08:27.060Z,1.10
2022-09-01T07:11:22.133Z,0.80
2022-09-01T07:14:21.537Z,1.00
2022-09-01T07:16:52.531Z,0.60
2022-09-01T07:19:21.126Z,0.80
2022-09-01T07:22:35.774Z,0.80
2022-09-01T07:24:46.238Z,0.70
2022-09-01T07:27:59.296Z,0.70
2022-09-01T07:30:27.568Z,0.70
2022-09-01T07:32:55.695Z,0.80
2022-09-01T07:35:22.941Z,0.70
2022-09-01T07:38:48.491Z,0.80
2022-09-01T07:43:46.036Z,0.80
2022-09-01T07:46:46.309Z,0.90
2022-09-01T07:49:50.107Z,0.80
2022-09-01T07:52:05.241Z,0.80
2022-09-01T07:54:34.052Z,0.60
2022-09-01T07:57:01.894Z,0.50
2022-09-01T07:59:29.992Z,0.60
2022-09-01T08:02:05.809Z,0.60
2022-09-01T08:04:34.094Z,0.70
2022-09-01T08:07:01.756Z,0.60
2022-09-01T08:09:38.263Z,0.60
2022-09-01T08:12:08.515Z,0.90
2022-09-01T08:14:43.141Z,0.80
2022-09-01T08:17:18.065Z,0.70
2022-09-01T08:19:59.111Z,0.80
2022-09-01T08:22:44.299Z,0.60
2022-09-01T08:25:25.073Z,0.50
2022-09-01T08:27:59.761Z,0.70
2022-09-01T08:30:28.629Z,0.50
2022-09-01T08:32:56.221Z,0.70
2022-09-01T08:35:23.709Z,0.70
2022-09-01T08:37:51.668Z,0.70
2022-09-01T08:40:23.531Z,0.50
2022-09-01T08:43:02.493Z,0.60
2022-09-01T08:45:38.284Z,0.70
2022-09-01T08:51:35.215Z,0.60
2022-09-01T08:54:31.919Z,0.70
2022-09-01T08:57:08.799Z,0.60
2022-09-01T08:59:54.384Z,0.60
2022-09-01T09:03:07.664Z,0.70
2022-09-01T09:06:13.119Z,0.80
2022-09-01T09:08:52.284Z,0.70
2022-09-01T09:12:16.546Z,0.80
2022-09-01T09:15:05.196Z,0.60
2022-09-01T09:17:41.688Z,0.70
2022-09-01T09:20:09.398Z,0.50
2022-09-01T09:22:36.543Z,0.70
2022-09-01T09:25:19.312Z,0.50
2022-09-01T09:27:50.343Z,0.60
2022-09-01T09:30:31.394Z,0.60
2022-09-01T09:35:51.309Z,0.70
2022-09-01T09:38:33.652Z,1.30
2022-09-01T09:41:26.126Z,0.90
2022-09-01T09:44:44.641Z,0.70
2022-09-01T09:47:44.189Z,0.60
2022-09-01T09:50:17.459Z,1.10
2022-09-01T09:52:46.931Z,0.70
2022-09-01T09:55:29.895Z,0.90
2022-09-01T09:58:01.894Z,0.80
2022-09-01T10:00:36.860Z,1.00
2022-09-01T10:03:09.977Z,0.70
2022-09-01T10:05:46.572Z,0.70
2022-09-01T10:08:30.408Z,0.80
2022-09-01T10:10:58.763Z,0.70
2022-09-01T10:13:32.657Z,0.90
2022-09-01T10:16:15.914Z,0.70
2022-09-01T10:18:51.368Z,0.70
2022-09-01T10:21:32.918Z,0.90
2022-09-01T10:24:20.376Z,0.60
2022-09-01T10:26:55.452Z,0.80
2022-09-01T10:29:35.244Z,0.90
2022-09-01T10:32:35.132Z,0.80
2022-09-01T10:35:07.469Z,0.80
2022-09-01T10:37:35.234Z,1.10
2022-09-01T10:40:30.346Z,0.90
2022-09-01T10:43:19.255Z,1.20
2022-09-01T10:45:49.951Z,1.00
2022-09-01T10:48:32.330Z,0.80
2022-09-01T10:51:19.339Z,1.30
2022-09-01T10:53:51.482Z,1.00
2022-09-01T10:56:35.392Z,1.20
2022-09-01T10:59:44.051Z,1.10
2022-09-01T11:02:27.993Z,1.00
2022-09-01T11:04:55.378Z,1.00
2022-09-01T11:07:44.344Z,1.10
2022-09-01T11:10:32.814Z,1.40
2022-09-01T11:13:32.442Z,1.30
2022-09-01T11:19:37.706Z,1.10
2022-09-01T11:22:26.893Z,1.10
2022-09-01T11:25:14.402Z,1.10
2022-09-01T11:27:49.983Z,1.30
2022-09-01T11:30:34.746Z,1.40
2022-09-01T11:33:43.281Z,1.60
2022-09-01T11:36:28.324Z,1.30
2022-09-01T11:39:16.366Z,1.20
2022-09-01T11:42:02.089Z,1.50
2022-09-01T11:45:15.489Z,1.50
2022-09-01T11:47:55.171Z,1.20
2022-09-01T11:50:36.097Z,1.60
2022-09-01T11:53:13.381Z,1.30
2022-09-01T11:55:51.171Z,1.10
2022-09-01T11:58:30.832Z,1.40
2022-09-01T12:01:14.993Z,1.40
2022-09-01T12:03:42.051Z,1.30
2022-09-01T12:06:18.708Z,1.20
2022-09-01T12:08:56.778Z,1.50
2022-09-01T12:11:31.000Z,1.70
2022-09-01T12:14:11.677Z,1.10
2022-09-01T12:16:42.529Z,1.50
2022-09-01T12:19:26.797Z,1.40
2022-09-01T12:22:03.548Z,1.50
2022-09-01T12:24:35.774Z,1.30
2022-09-01T12:27:04.962Z,1.40
2022-09-01T12:29:33.200Z,1.20
2022-09-01T12:32:01.580Z,1.60
2022-09-01T12:34:34.390Z,1.70
2022-09-01T12:37:16.442Z,1.70
2022-09-01T12:39:48.442Z,1.40
2022-09-01T12:42:24.935Z,1.40
2022-09-01T12:44:59.294Z,1.50
2022-09-01T12:47:48.080Z,1.60
2022-09-01T12:50:16.476Z,1.70
2022-09-01T12:52:52.484Z,1.30
2022-09-01T12:58:12.280Z,1.40
2022-09-01T13:01:01.702Z,1.40
2022-09-01T13:03:30.057Z,1.60
2022-09-01T13:06:00.870Z,1.20
2022-09-01T13:08:37.668Z,1.60
2022-09-01T13:11:20.505Z,1.60
2022-09-01T13:13:47.559Z,1.30
2022-09-01T13:16:14.740Z,1.50
2022-09-01T13:21:34.654Z,1.30
2022-09-01T13:24:05.239Z,1.70
2022-09-01T13:26:32.763Z,1.20
2022-09-01T13:29:00.723Z,1.10
2022-09-01T13:31:30.399Z,1.20
2022-09-01T13:34:23.019Z,1.30
2022-09-01T13:36:51.048Z,1.20
2022-09-01T13:39:20.308Z,1.40
2022-09-01T13:41:49.661Z,1.50
2022-09-01T13:44:18.659Z,1.50
2022-09-01T13:52:21.668Z,1.20
2022-09-01T13:54:48.488Z,1.30
2022-09-01T13:57:16.520Z,1.00
2022-09-01T13:59:44.372Z,1.50
2022-09-01T14:02:11.471Z,1.20
2022-09-01T14:04:38.615Z,1.40
2022-09-01T14:07:06.410Z,1.70
2022-09-01T14:09:34.240Z,1.70
2022-09-01T14:12:00.987Z,1.70
2022-09-01T14:15:11.031Z,2.00
2022-09-01T14:17:14.647Z,1.80
2022-09-01T14:19:42.364Z,2.10
2022-09-01T14:22:09.180Z,2.10
2022-09-01T14:24:40.302Z,2.00
2022-09-01T14:27:08.178Z,2.50
2022-09-01T14:32:04.151Z,2.80
2022-09-01T14:34:31.015Z,3.60
2022-09-01T14:36:58.198Z,2.90
2022-09-01T14:39:25.395Z,3.10
2022-09-01T14:41:52.589Z,3.90
2022-09-01T14:44:19.320Z,4.10
2022-09-01T14:46:47.110Z,3.40
2022-09-01T14:49:19.021Z,4.90
2022-09-01T14:54:39.435Z,5.90
2022-09-01T14:59:53.972Z,4.80
2022-09-01T15:02:22.040Z,5.80
2022-09-01T15:04:48.905Z,6.60
2022-09-01T15:07:15.879Z,7.10
2022-09-01T15:09:42.757Z,7.50
2022-09-01T15:12:10.049Z,7.30
2022-09-01T15:14:37.882Z,7.50
2022-09-01T15:17:06.499Z,8.00
2022-09-01T15:19:33.422Z,7.80
2022-09-01T15:22:00.997Z,8.30
2022-09-01T15:24:27.827Z,8.80
2022-09-01T15:26:55.058Z,8.10
2022-09-01T15:29:21.838Z,8.70
2022-09-01T15:31:48.716Z,8.30
2022-09-01T15:34:17.683Z,8.80
2022-09-01T15:36:45.415Z,9.00
2022-09-01T15:39:12.333Z,10.90
2022-09-01T15:41:39.193Z,10.80
2022-09-01T15:44:08.414Z,12.90
2022-09-01T15:46:38.924Z,11.40
2022-09-01T15:49:09.922Z,12.60
2022-09-01T15:51:45.283Z,12.10
2022-09-01T15:54:16.926Z,12.20
2022-09-01T15:56:44.990Z,12.20
2022-09-01T15:59:12.141Z,13.80
2022-09-01T16:01:43.644Z,13.30
2022-09-01T16:04:19.975Z,14.30
2022-09-01T16:06:49.634Z,13.80
2022-09-01T16:09:25.480Z,16.20
2022-09-01T16:11:53.827Z,15.20
2022-09-01T16:14:21.229Z,15.00
2022-09-01T16:17:38.044Z,16.30
2022-09-01T16:20:23.361Z,14.40
2022-09-01T16:23:17.088Z,13.50
2022-09-01T16:25:45.799Z,16.00
2022-09-01T16:28:38.272Z,15.60
2022-09-01T16:31:21.176Z,17.70
2022-09-01T16:33:56.269Z,14.90
2022-09-01T16:36:52.453Z,13.00
2022-09-01T16:39:24.736Z,14.10
2022-09-01T16:42:13.501Z,13.90
2022-09-01T16:45:02.388Z,13.80
2022-09-01T16:47:54.506Z,12.60
2022-09-01T16:50:39.279Z,14.90
2022-09-01T16:53:43.671Z,14.40
2022-09-01T16:56:22.237Z,12.60
2022-09-01T16:59:40.675Z,13.10
2022-09-01T17:02:42.222Z,12.30
2022-09-01T17:05:25.932Z,12.00
2022-09-01T17:08:24.575Z,11.30
2022-09-01T17:10:55.086Z,9.20
2022-09-01T17:13:41.944Z,6.70
2022-09-01T17:16:42.198Z,6.10
2022-09-01T17:19:16.513Z,4.70
2022-09-01T17:21:53.948Z,4.10
2022-09-01T17:24:40.307Z,3.10
2022-09-01T17:27:14.191Z,2.70
2022-09-01T17:29:46.792Z,1.70
2022-09-01T17:32:35.166Z,2.00
2022-09-01T17:35:37.366Z,2.20
2022-09-01T17:38:36.452Z,1.60
2022-09-01T17:41:19.354Z,2.20
2022-09-01T17:43:58.855Z,1.80
2022-09-01T17:46:47.142Z,1.80
2022-09-01T17:49:59.795Z,1.90
2022-09-01T17:52:47.475Z,1.40
2022-09-01T17:55:58.563Z,1.40
2022-09-01T17:58:46.534Z,1.30
2022-09-01T18:01:31.478Z,1.20
2022-09-01T18:04:20.033Z,1.30
2022-09-01T18:07:33.113Z,1.10
2022-09-01T18:10:06.497Z,0.90
2022-09-01T18:12:37.438Z,0.80
2022-09-01T18:15:49.063Z,1.00
2022-09-01T18:18:35.627Z,1.00
2022-09-01T18:21:16.818Z,0.90
2022-09-01T18:23:51.387Z,0.90
2022-09-01T18:26:32.619Z,0.80
2022-09-01T18:29:03.099Z,0.80
2022-09-01T18:31:50.476Z,0.90
2022-09-01T18:34:54.516Z,1.00
2022-09-01T18:37:46.440Z,0.90
2022-09-01T18:40:43.098Z,0.80
2022-09-01T18:43:25.942Z,0.90
2022-09-01T18:46:01.356Z,0.70
2022-09-01T18:48:40.276Z,0.80
2022-09-01T18:51:14.888Z,0.80
2022-09-01T18:53:57.463Z,1.00
2022-09-01T18:56:52.503Z,0.90
2022-09-01T19:00:17.015Z,1.30
2022-09-01T19:03:06.944Z,1.00
2022-09-01T19:06:35.333Z,1.10
2022-09-01T19:09:08.899Z,1.00
2022-09-01T19:12:05.771Z,1.10
2022-09-01T19:15:00.301Z,1.10
2022-09-01T19:17:58.354Z,1.10
2022-09-01T19:20:40.704Z,0.90
2022-09-01T19:23:35.924Z,1.00
2022-09-01T19:26:11.542Z,0.70
2022-09-01T19:28:49.320Z,1.00
2022-09-01T19:31:38.851Z,1.20
2022-09-01T19:34:12.660Z,0.90
2022-09-01T19:36:53.241Z,1.00
2022-09-01T19:39:41.382Z,1.10
2022-09-01T19:42:55.188Z,1.10
2022-09-01T19:45:28.290Z,1.50
2022-09-01T19:48:19.618Z,1.30
2022-09-01T19:51:05.400Z,1.40
2022-09-01T19:53:44.382Z,1.40
2022-09-01T19:56:49.537Z,1.30
2022-09-01T19:59:51.887Z,1.50
2022-09-01T20:02:44.290Z,1.10
2022-09-01T20:05:33.711Z,1.10
2022-09-01T20:08:46.482Z,1.30
2022-09-01T20:11:40.141Z,1.00
2022-09-01T20:14:35.036Z,0.90
2022-09-01T20:17:08.039Z,0.90
2022-09-01T20:20:08.724Z,0.80
2022-09-01T20:22:41.781Z,0.70
2022-09-01T20:25:30.177Z,0.70
2022-09-01T20:28:12.794Z,0.70
2022-09-01T20:30:51.198Z,0.80
2022-09-01T20:33:49.498Z,1.00
2022-09-01T20:36:45.101Z,0.70
2022-09-01T20:39:39.690Z,0.70
2022-09-01T20:42:38.540Z,0.70
2022-09-01T20:45:23.698Z,0.70
2022-09-01T20:48:01.859Z,0.60
2022-09-01T20:50:52.363Z,0.60
2022-09-01T20:53:28.095Z,0.70
2022-09-01T20:56:32.332Z,0.70
2022-09-01T20:59:19.667Z,0.80
2022-09-01T21:02:33.357Z,0.80
2022-09-01T21:05:14.270Z,0.70
2022-09-01T21:08:11.330Z,0.60
2022-09-01T21:11:06.282Z,0.80
2022-09-01T21:13:57.101Z,1.00
2022-09-01T21:16:45.101Z,0.80
2022-09-01T21:19:36.129Z,1.10
2022-09-01T21:22:11.295Z,1.10
2022-09-01T21:24:41.937Z,1.40
2022-09-01T21:27:22.754Z,0.90
2022-09-01T21:29:54.865Z,1.10
2022-09-01T21:32:23.618Z,2.80
2022-09-01T21:34:50.963Z,1.60
2022-09-01T21:37:18.761Z,1.30
2022-09-01T21:39:45.598Z,1.20
2022-09-01T21:42:13.688Z,1.50
2022-09-01T21:44:41.536Z,1.20
2022-09-01T21:47:08.528Z,1.30
2022-09-01T21:49:35.560Z,1.10
2022-09-01T21:52:02.868Z,1.30
2022-09-01T21:54:29.755Z,0.90
2022-09-01T21:56:56.893Z,0.80
2022-09-01T21:59:24.563Z,0.90
2022-09-01T22:01:51.498Z,0.70
2022-09-01T22:04:19.367Z,1.20
2022-09-01T22:06:46.855Z,1.10
2022-09-01T22:09:20.489Z,0.90
2022-09-01T22:11:48.833Z,1.10
2022-09-01T22:14:16.100Z,1.30
2022-09-01T22:16:43.300Z,0.90
2022-09-01T22:19:10.211Z,1.10
2022-09-01T22:21:38.333Z,1.10
2022-09-01T22:24:06.884Z,1.60
2022-09-01T22:26:34.834Z,1.60
2022-09-01T22:29:06.158Z,1.30
2022-09-01T22:31:37.139Z,1.30
2022-09-01T22:34:06.552Z,1.30
2022-09-01T22:36:43.735Z,1.30
2022-09-01T22:39:12.627Z,1.20
2022-09-01T22:41:41.529Z,1.60
2022-09-01T22:44:10.001Z,1.40
2022-09-01T22:46:39.413Z,1.30
2022-09-01T22:49:07.358Z,1.50
2022-09-01T22:51:38.078Z,1.40
2022-09-01T22:54:06.249Z,1.50
2022-09-01T22:56:37.144Z,2.30
2022-09-01T22:59:14.784Z,1.90
2022-09-01T23:01:47.685Z,1.60
2022-09-01T23:04:17.486Z,1.10
2022-09-01T23:06:49.881Z,0.80
2022-09-01T23:09:19.460Z,0.70
2022-09-01T23:11:47.010Z,0.60
2022-09-01T23:14:14.520Z,0.60
2022-09-01T23:16:41.734Z,0.50
2022-09-01T23:19:08.774Z,0.50
2022-09-01T23:21:37.755Z,0.70
2022-09-01T23:24:05.694Z,0.50
2022-09-01T23:26:33.523Z,0.60
2022-09-01T23:29:01.318Z,0.60
2022-09-01T23:31:33.517Z,0.60
2022-09-01T23:34:00.651Z,0.60
2022-09-01T23:36:29.504Z,0.50
2022-09-01T23:38:57.206Z,0.50
2022-09-01T23:41:32.689Z,0.50
2022-09-01T23:44:04.337Z,0.60
2022-09-01T23:46:36.922Z,0.60
2022-09-01T23:49:05.042Z,0.60
2022-09-01T23:51:32.179Z,0.90
2022-09-01T23:53:59.888Z,0.80
2022-09-01T23:56:29.596Z,0.70
2022-09-01T23:58:58.575Z,0.70
